Alamosa, CO

5:04 AM MDT on August 31, 2014 (GMT -0600)
San Luis Valley Regional / Bergman Field | Change Station
CLOSE
Current Station
Airport
Location: Alamosa,
Elevation: 7543 ft
Nearby Weather Stations

Elev 7543 ft 37.44 °N, 105.86 °W | Updated 12 minutes ago

Clear
Clear
42 °F
Feels Like 42 °F
N
0
Wind Variable Wind from North

Today
High -- | Low -- °F
--% Chance of Precip.
Yesterday
High -- | Low -- °F
Precip. -- in
6:33 AM 7:33 PM
Waxing Crescent, 30% visible
Pressure 29.92 in
Visibility 10.0 miles
Clouds Clear
Dew Point 36 °F
Humidity 79%
Rainfall 0.00 in
Snow Depth Not available.
UV 0 out of 12
Pollen 10.50 out of 12
Air Quality Not available.
Flu Activity Not available.
METAR KALS 311052Z AUTO 00000KT 10SM CLR 06/02 A3015 RMK AO2 SLP132 T00560022

More Conditions Fewer Conditions

Pressure 29.92 in
Visibility 10.0 miles
Clouds Clear
Dew Point 36 °F
Humidity 79%
Rainfall 0.00 in
Snow Depth Not available.
UV 0 out of 12
Pollen 10.50 out of 12
Air Quality Not available.
Flu Activity Not available.
METAR KALS 311052Z AUTO 00000KT 10SM CLR 06/02 A3015 RMK AO2 SLP132 T00560022

More Conditions Fewer Conditions

10-Day Weather Forecast

Almanac

Astronomy

Aug. 31, 2014 Rise Set
Actual Time 6:33 AM MDT 7:33 PM MDT
Civil Twilight 6:06 AM MDT 8:00 PM MDT
Nautical Twilight 5:34 AM MDT 8:32 PM MDT
Astronomical Twilight 5:01 AM MDT 9:05 PM MDT
Moon 12:14 PM MDT 10:58 PM MDT
Length of Visible Light 13h 54m
Length of Day
13h 00m
Tomorrow will be 2m 18s shorter.
Waxing Crescent, 30% of the Moon is Illuminated
Today
Waxing Crescent
Sep 2
First Quarter
Sep 8
Full
Sep 15
Last Quarter
Sep 24
New

Today's Extremes

State Highs State Lows

Community

WunderPhotos

Upload Photos

1,748,837 photos uploaded!

Nearby

Snow Depth

Station Depth Elevation
Ute Creek 0 in 10650 ft
Trinchera 0 in 10860 ft
Medano Pass 0 in 9620 ft
Lily Pond 0 in 11000 ft
Culebra #2 0 in 10500 ft

Earthquake Activity

City Distance Mag. Time & Date
Trinidad, Colorado 56 miles 2.7 4:20 AM MDT
2014-08-31
Minimum magnitude displayed is 2.5.

Coastal Water Temperatures

Place Temperature
No Stations Reporting

Nearby Weather Stations